createdAt,value
2023-02-17T00:01:22.445Z,102297.03
2023-02-17T00:03:51.054Z,102293.03
2023-02-17T00:06:21.466Z,102293.53
2023-02-17T00:08:49.208Z,102285.69
2023-02-17T00:11:17.625Z,102298.97
2023-02-17T00:13:45.812Z,102303.81
2023-02-17T00:16:17.717Z,102298.16
2023-02-17T00:18:45.065Z,102296.78
2023-02-17T00:21:18.076Z,102294.84
2023-02-17T00:23:47.127Z,102298.59
2023-02-17T00:26:14.880Z,102301.00
2023-02-17T00:28:44.098Z,102297.13
2023-02-17T00:31:16.990Z,102310.34
2023-02-17T00:33:44.377Z,102307.78
2023-02-17T00:36:14.884Z,102310.03
2023-02-17T00:38:42.199Z,102314.19
2023-02-17T00:41:09.619Z,102306.28
2023-02-17T00:43:37.006Z,102316.78
2023-02-17T00:46:04.855Z,102309.84
2023-02-17T00:48:32.684Z,102311.16
2023-02-17T00:51:00.253Z,102309.13
2023-02-17T00:53:28.142Z,102297.84
2023-02-17T00:55:55.833Z,102296.75
2023-02-17T00:58:23.517Z,102308.47
2023-02-17T01:00:51.055Z,102299.06
2023-02-17T01:03:19.238Z,102294.41
2023-02-17T01:05:48.865Z,102300.31
2023-02-17T01:08:19.136Z,102300.53
2023-02-17T01:10:48.184Z,102291.81
2023-02-17T01:13:17.336Z,102300.00
2023-02-17T01:15:48.799Z,102294.41
2023-02-17T01:18:18.041Z,102290.16
2023-02-17T01:20:45.829Z,102300.00
2023-02-17T01:23:13.952Z,102291.09
2023-02-17T01:25:46.391Z,102296.47
2023-02-17T01:28:20.517Z,102292.09
2023-02-17T01:30:48.540Z,102289.13
2023-02-17T01:33:16.138Z,102282.06
2023-02-17T01:35:43.583Z,102287.66
2023-02-17T01:38:16.051Z,102287.91
2023-02-17T01:40:48.003Z,102290.63
2023-02-17T01:43:17.591Z,102285.31
2023-02-17T01:45:59.632Z,102292.59
2023-02-17T01:48:29.739Z,102284.44
2023-02-17T01:51:11.054Z,102279.75
2023-02-17T01:53:48.486Z,102283.28
2023-02-17T01:56:17.370Z,102287.94
2023-02-17T01:58:56.452Z,102294.00
2023-02-17T02:01:24.042Z,102279.75
2023-02-17T02:03:53.307Z,102281.00
2023-02-17T02:06:26.072Z,102269.72
2023-02-17T02:08:59.357Z,102264.88
2023-02-17T02:11:33.105Z,102259.31
2023-02-17T02:14:01.108Z,102266.53
2023-02-17T02:16:37.453Z,102261.59
2023-02-17T02:19:20.030Z,102256.56
2023-02-17T02:22:10.932Z,102252.44
2023-02-17T02:25:08.285Z,102263.75
2023-02-17T02:27:55.846Z,102260.06
2023-02-17T02:30:51.406Z,102262.84
2023-02-17T02:33:28.852Z,102250.00
2023-02-17T02:36:33.118Z,102253.25
2023-02-17T02:39:17.573Z,102256.28
2023-02-17T02:41:54.202Z,102255.56
2023-02-17T02:44:22.165Z,102260.88
2023-02-17T02:47:05.191Z,102255.88
2023-02-17T02:49:36.580Z,102250.81
2023-02-17T02:52:17.328Z,102260.63
2023-02-17T02:55:11.049Z,102258.13
2023-02-17T02:57:58.536Z,102257.47
2023-02-17T03:00:39.053Z,102250.94
2023-02-17T03:03:22.445Z,102248.16
2023-02-17T03:06:10.853Z,102250.38
2023-02-17T03:08:53.393Z,102248.22
2023-02-17T03:11:34.718Z,102253.34
2023-02-17T03:14:09.770Z,102249.41
2023-02-17T03:16:39.174Z,102256.22
2023-02-17T03:19:07.490Z,102251.75
2023-02-17T03:21:39.460Z,102255.41
2023-02-17T03:24:07.054Z,102262.47
2023-02-17T03:26:34.374Z,102262.13
2023-02-17T03:29:01.817Z,102267.41
2023-02-17T03:31:31.029Z,102268.03
2023-02-17T03:33:59.407Z,102271.16
2023-02-17T03:36:27.326Z,102274.69
2023-02-17T03:38:54.625Z,102276.94
2023-02-17T03:41:40.278Z,102277.66
2023-02-17T03:44:07.611Z,102286.34
2023-02-17T03:46:35.232Z,102269.28
2023-02-17T03:49:02.540Z,102276.50
2023-02-17T03:51:29.895Z,102276.28
2023-02-17T03:53:57.224Z,102275.91
2023-02-17T03:56:24.604Z,102274.06
2023-02-17T03:58:51.962Z,102282.25
2023-02-17T04:01:19.771Z,102285.50
2023-02-17T04:03:47.292Z,102283.38
2023-02-17T04:06:15.023Z,102280.69
2023-02-17T04:08:42.472Z,102285.94
2023-02-17T04:11:11.006Z,102289.94
2023-02-17T04:13:38.916Z,102298.72
2023-02-17T04:16:10.090Z,102291.09
2023-02-17T04:18:38.148Z,102291.69
2023-02-17T04:21:06.404Z,102288.53
2023-02-17T04:23:37.559Z,102300.72
2023-02-17T04:26:07.200Z,102292.84
2023-02-17T04:28:37.897Z,102293.78
2023-02-17T04:31:05.638Z,102298.69
2023-02-17T04:33:33.679Z,102302.56
2023-02-17T04:36:01.421Z,102299.50
2023-02-17T04:38:31.437Z,102298.06
2023-02-17T04:41:00.353Z,102289.75
2023-02-17T04:43:28.680Z,102293.06
2023-02-17T04:45:56.633Z,102297.38
2023-02-17T04:48:24.978Z,102286.13
2023-02-17T04:50:52.688Z,102284.00
2023-02-17T04:53:20.367Z,102286.09
2023-02-17T04:55:50.632Z,102287.88
2023-02-17T04:58:18.473Z,102282.22
2023-02-17T05:00:53.182Z,102283.03
2023-02-17T05:03:20.654Z,102278.31
2023-02-17T05:05:48.030Z,102289.53
2023-02-17T05:08:15.868Z,102293.91
2023-02-17T05:10:43.204Z,102296.75
2023-02-17T05:13:10.823Z,102298.38
2023-02-17T05:15:38.292Z,102290.41
2023-02-17T05:18:06.139Z,102296.97
2023-02-17T05:20:33.506Z,102294.50
2023-02-17T05:23:01.030Z,102305.44
2023-02-17T05:25:28.565Z,102302.06
2023-02-17T05:27:55.914Z,102299.63
2023-02-17T05:30:23.779Z,102302.16
2023-02-17T05:32:51.190Z,102301.13
2023-02-17T05:35:18.646Z,102301.66
2023-02-17T05:37:46.026Z,102305.94
2023-02-17T05:40:15.345Z,102314.91
2023-02-17T05:42:42.675Z,102308.47
2023-02-17T05:45:10.337Z,102312.16
2023-02-17T05:47:37.620Z,102309.31
2023-02-17T05:50:05.557Z,102313.69
2023-02-17T05:52:32.858Z,102319.75
2023-02-17T05:55:00.277Z,102323.44
2023-02-17T05:57:30.850Z,102325.13
2023-02-17T05:59:58.378Z,102331.63
2023-02-17T06:02:25.868Z,102338.22
2023-02-17T06:04:53.314Z,102336.06
2023-02-17T06:07:20.772Z,102339.56
2023-02-17T06:09:48.106Z,102340.75
2023-02-17T06:12:15.897Z,102345.06
2023-02-17T06:14:43.245Z,102348.66
2023-02-17T06:17:10.935Z,102355.94
2023-02-17T06:19:38.256Z,102351.19
2023-02-17T06:22:05.641Z,102358.16
2023-02-17T06:24:33.067Z,102356.94
2023-02-17T06:27:01.405Z,102363.00
2023-02-17T06:29:28.875Z,102365.53
2023-02-17T06:31:57.540Z,102370.75
2023-02-17T06:34:25.111Z,102362.69
2023-02-17T06:36:52.475Z,102361.97
2023-02-17T06:39:19.843Z,102379.47
2023-02-17T06:41:47.255Z,102368.06
2023-02-17T06:44:14.609Z,102367.94
2023-02-17T06:46:42.006Z,102375.53
2023-02-17T06:49:09.336Z,102373.03
2023-02-17T06:51:36.700Z,102367.28
2023-02-17T06:54:04.216Z,102370.03
2023-02-17T06:56:31.567Z,102360.97
2023-02-17T06:58:58.938Z,102367.75
2023-02-17T07:01:26.527Z,102374.16
2023-02-17T07:03:54.797Z,102374.69
2023-02-17T07:06:23.574Z,102376.59
2023-02-17T07:08:51.571Z,102382.03
2023-02-17T07:11:19.345Z,102377.78
2023-02-17T07:13:47.210Z,102377.34
2023-02-17T07:16:15.441Z,102386.00
2023-02-17T07:18:42.837Z,102385.31
2023-02-17T07:21:10.879Z,102379.97
2023-02-17T07:23:39.550Z,102377.97
2023-02-17T07:26:09.716Z,102385.47
2023-02-17T07:28:38.097Z,102378.22
2023-02-17T07:31:10.965Z,102389.44
2023-02-17T07:33:39.090Z,102386.94
2023-02-17T07:36:12.088Z,102382.78
2023-02-17T07:38:40.413Z,102387.00
2023-02-17T07:41:14.043Z,102384.84
2023-02-17T07:43:41.716Z,102386.94
2023-02-17T07:46:10.879Z,102380.38
2023-02-17T07:48:39.160Z,102391.84
2023-02-17T07:51:15.184Z,102380.63
2023-02-17T07:53:43.308Z,102388.19
2023-02-17T07:56:13.894Z,102383.69
2023-02-17T07:58:42.770Z,102389.16
2023-02-17T08:01:14.037Z,102384.94
2023-02-17T08:03:42.972Z,102386.25
2023-02-17T08:06:15.961Z,102382.78
2023-02-17T08:09:02.407Z,102387.66
2023-02-17T08:11:49.850Z,102378.72
2023-02-17T08:14:18.110Z,102380.59
2023-02-17T08:16:45.582Z,102385.81
2023-02-17T08:19:12.939Z,102387.94
2023-02-17T08:21:40.375Z,102375.81
2023-02-17T08:24:07.926Z,102381.56
2023-02-17T08:26:35.257Z,102387.00
2023-02-17T08:29:02.849Z,102384.53
2023-02-17T08:31:35.745Z,102378.22
2023-02-17T08:34:06.233Z,102380.34
2023-02-17T08:36:33.847Z,102383.56
2023-02-17T08:39:01.540Z,102377.16
2023-02-17T08:41:34.713Z,102375.06
2023-02-17T08:44:12.276Z,102378.13
2023-02-17T08:46:40.793Z,102387.63
2023-02-17T08:49:08.881Z,102384.97
2023-02-17T08:51:37.302Z,102383.84
2023-02-17T08:54:07.098Z,102391.28
2023-02-17T08:56:35.038Z,102390.47
2023-02-17T08:59:02.891Z,102387.16
2023-02-17T09:01:30.998Z,102389.81
2023-02-17T09:04:00.746Z,102385.44
2023-02-17T09:06:35.541Z,102387.25
2023-02-17T09:09:05.019Z,102377.78
2023-02-17T09:11:32.585Z,102385.56
2023-02-17T09:14:00.090Z,102376.94
2023-02-17T09:16:27.507Z,102378.97
2023-02-17T09:18:57.824Z,102387.56
2023-02-17T09:21:25.293Z,102369.25
2023-02-17T09:23:53.907Z,102372.34
2023-02-17T09:26:22.250Z,102373.34
2023-02-17T09:28:49.772Z,102374.53
2023-02-17T09:31:22.946Z,102384.34
2023-02-17T09:33:51.252Z,102376.75
2023-02-17T09:36:25.350Z,102381.50
2023-02-17T09:38:53.253Z,102382.63
2023-02-17T09:41:25.710Z,102377.72
2023-02-17T09:43:55.498Z,102374.53
2023-02-17T09:46:33.793Z,102371.88
2023-02-17T09:49:08.793Z,102372.00
2023-02-17T09:51:42.588Z,102369.34
2023-02-17T09:54:22.881Z,102371.88
2023-02-17T09:56:53.183Z,102370.25
2023-02-17T09:59:29.405Z,102375.53
2023-02-17T10:01:57.600Z,102373.94
2023-02-17T10:04:34.237Z,102370.47
2023-02-17T10:07:13.692Z,102368.91
2023-02-17T10:09:55.953Z,102371.25
2023-02-17T10:12:37.706Z,102370.94
2023-02-17T10:15:13.390Z,102373.31
2023-02-17T10:18:17.138Z,102370.44
2023-02-17T10:21:13.244Z,102366.81
2023-02-17T10:23:40.756Z,102370.94
2023-02-17T10:26:14.247Z,102379.38
2023-02-17T10:29:05.763Z,102375.72
2023-02-17T10:31:52.414Z,102363.16
2023-02-17T10:34:22.902Z,102371.16
2023-02-17T10:36:59.145Z,102372.50
2023-02-17T10:39:44.985Z,102367.19
2023-02-17T10:42:24.510Z,102360.88
2023-02-17T10:44:53.769Z,102359.00
2023-02-17T10:47:22.214Z,102351.75
2023-02-17T10:49:54.708Z,102352.94
2023-02-17T10:52:25.743Z,102353.16
2023-02-17T10:55:01.927Z,102350.91
2023-02-17T10:57:35.409Z,102344.81
2023-02-17T11:00:05.283Z,102339.53
2023-02-17T11:02:40.131Z,102334.47
2023-02-17T11:05:09.025Z,102329.22
2023-02-17T11:07:41.804Z,102328.50
2023-02-17T11:10:41.902Z,102317.66
2023-02-17T11:13:30.932Z,102319.25
2023-02-17T11:15:58.858Z,102311.13
2023-02-17T11:18:31.378Z,102303.63
2023-02-17T11:21:08.943Z,102294.09
2023-02-17T11:23:46.677Z,102293.91
2023-02-17T11:26:23.318Z,102293.44
2023-02-17T11:28:51.335Z,102297.97
2023-02-17T11:31:31.728Z,102288.84
2023-02-17T11:33:59.134Z,102286.50
2023-02-17T11:36:32.704Z,102289.72
2023-02-17T11:39:13.580Z,102277.34
2023-02-17T11:41:41.076Z,102270.75
2023-02-17T11:44:09.990Z,102279.41
2023-02-17T11:46:44.424Z,102266.28
2023-02-17T11:49:37.641Z,102265.84
2023-02-17T11:52:18.019Z,102261.47
2023-02-17T11:54:58.104Z,102258.06
2023-02-17T11:57:37.812Z,102256.44
2023-02-17T12:00:22.611Z,102259.09
2023-02-17T12:03:18.244Z,102255.59
2023-02-17T12:06:09.132Z,102248.16
2023-02-17T12:08:48.310Z,102243.53
2023-02-17T12:11:49.496Z,102246.59
2023-02-17T12:14:50.644Z,102237.81
2023-02-17T12:17:36.384Z,102242.84
2023-02-17T12:20:20.344Z,102237.56
2023-02-17T12:23:15.901Z,102230.84
2023-02-17T12:25:49.160Z,102235.34
2023-02-17T12:28:30.630Z,102225.38
2023-02-17T12:31:11.171Z,102225.09
2023-02-17T12:33:56.612Z,102222.69
2023-02-17T12:36:30.471Z,102222.97
2023-02-17T12:39:02.821Z,102223.41
2023-02-17T12:41:42.145Z,102217.88
2023-02-17T12:44:20.992Z,102207.84
2023-02-17T12:46:55.840Z,102206.38
2023-02-17T12:49:30.167Z,102204.19
2023-02-17T12:52:06.877Z,102205.16
2023-02-17T12:54:56.819Z,102198.81
2023-02-17T12:57:32.677Z,102193.97
2023-02-17T13:00:01.565Z,102188.28
2023-02-17T13:02:30.799Z,102195.00
2023-02-17T13:05:03.448Z,102187.78
2023-02-17T13:07:39.733Z,102183.06
2023-02-17T13:10:17.911Z,102177.25
2023-02-17T13:12:56.209Z,102169.69
2023-02-17T13:15:44.774Z,102170.75
2023-02-17T13:18:27.868Z,102172.91
2023-02-17T13:21:17.032Z,102158.78
2023-02-17T13:23:57.923Z,102157.03
2023-02-17T13:26:34.712Z,102154.31
2023-02-17T13:29:08.373Z,102149.06
2023-02-17T13:31:55.292Z,102149.06
2023-02-17T13:34:44.238Z,102144.28
2023-02-17T13:37:41.038Z,102140.00
2023-02-17T13:40:20.519Z,102142.16
2023-02-17T13:42:56.605Z,102134.88
2023-02-17T13:45:28.418Z,102133.94
2023-02-17T13:47:58.634Z,102128.34
2023-02-17T13:50:33.806Z,102134.00
2023-02-17T13:53:33.970Z,102131.22
2023-02-17T13:56:05.570Z,102134.88
2023-02-17T13:58:39.940Z,102120.75
2023-02-17T14:01:14.993Z,102117.31
2023-02-17T14:03:47.645Z,102115.91
2023-02-17T14:06:40.505Z,102116.06
2023-02-17T14:09:31.809Z,102118.22
2023-02-17T14:12:02.786Z,102117.91
2023-02-17T14:14:38.055Z,102113.38
2023-02-17T14:17:09.160Z,102116.22
2023-02-17T14:20:02.530Z,102113.88
2023-02-17T14:22:32.421Z,102120.97
2023-02-17T14:25:15.055Z,102116.25
2023-02-17T14:27:43.004Z,102116.50
2023-02-17T14:30:14.401Z,102119.34
2023-02-17T14:32:41.753Z,102114.81
2023-02-17T14:35:32.581Z,102115.69
2023-02-17T14:38:09.989Z,102117.63
2023-02-17T14:40:39.922Z,102115.06
2023-02-17T14:43:07.438Z,102112.59
2023-02-17T14:45:34.710Z,102115.75
2023-02-17T14:48:05.169Z,102113.81
2023-02-17T14:50:42.283Z,102105.25
2023-02-17T14:53:32.831Z,102117.13
2023-02-17T14:56:10.473Z,102110.84
2023-02-17T14:58:37.841Z,102112.53
2023-02-17T15:01:05.778Z,102111.97
2023-02-17T15:03:33.080Z,102111.97
2023-02-17T15:06:01.114Z,102110.03
2023-02-17T15:08:33.125Z,102114.41
2023-02-17T15:11:01.472Z,102108.59
2023-02-17T15:13:28.916Z,102116.31
2023-02-17T15:15:56.251Z,102116.19
2023-02-17T15:18:23.716Z,102123.91
2023-02-17T15:20:51.874Z,102123.09
2023-02-17T15:23:22.661Z,102125.22
2023-02-17T15:25:50.122Z,102120.56
2023-02-17T15:28:19.813Z,102117.75
2023-02-17T15:30:55.807Z,102118.00
2023-02-17T15:33:24.699Z,102113.44
2023-02-17T15:35:54.823Z,102101.22
2023-02-17T15:38:23.298Z,102100.63
2023-02-17T15:40:51.062Z,102094.81
2023-02-17T15:43:21.889Z,102093.19
2023-02-17T15:45:49.470Z,102091.25
2023-02-17T15:48:27.368Z,102093.38
2023-02-17T15:50:54.711Z,102091.69
2023-02-17T15:53:22.215Z,102087.53
2023-02-17T15:55:50.497Z,102088.72
2023-02-17T15:58:21.213Z,102096.69
2023-02-17T16:00:50.339Z,102101.28
2023-02-17T16:03:18.538Z,102101.63
2023-02-17T16:05:45.947Z,102097.97
2023-02-17T16:08:13.484Z,102095.34
2023-02-17T16:10:42.536Z,102097.75
2023-02-17T16:13:14.825Z,102094.81
2023-02-17T16:15:42.830Z,102091.19
2023-02-17T16:18:19.905Z,102100.75
2023-02-17T16:20:47.493Z,102103.09
2023-02-17T16:23:14.945Z,102106.31
2023-02-17T16:25:44.514Z,102101.56
2023-02-17T16:28:18.180Z,102105.81
2023-02-17T16:30:49.698Z,102120.00
2023-02-17T16:33:17.670Z,102129.19
2023-02-17T16:35:45.504Z,102126.97
2023-02-17T16:38:22.320Z,102118.66
2023-02-17T16:40:52.692Z,102118.13
2023-02-17T16:43:26.841Z,102124.22
2023-02-17T16:46:00.641Z,102132.06
2023-02-17T16:48:31.763Z,102137.09
2023-02-17T16:50:59.396Z,102137.69
2023-02-17T16:53:26.870Z,102138.88
2023-02-17T16:55:55.467Z,102145.72
2023-02-17T16:58:25.464Z,102143.78
2023-02-17T17:00:55.081Z,102148.63
2023-02-17T17:03:22.738Z,102153.94
2023-02-17T17:05:52.585Z,102158.88
2023-02-17T17:08:21.699Z,102157.19
2023-02-17T17:10:52.486Z,102161.25
2023-02-17T17:13:19.877Z,102163.81
2023-02-17T17:15:47.297Z,102167.84
2023-02-17T17:18:21.718Z,102173.41
2023-02-17T17:20:49.448Z,102178.91
2023-02-17T17:23:16.905Z,102178.09
2023-02-17T17:25:46.749Z,102174.34
2023-02-17T17:28:17.137Z,102173.97
2023-02-17T17:30:45.002Z,102176.22
2023-02-17T17:33:12.440Z,102175.47
2023-02-17T17:35:39.913Z,102177.75
2023-02-17T17:38:07.705Z,102195.25
2023-02-17T17:40:48.434Z,102188.63
2023-02-17T17:43:20.390Z,102188.66
2023-02-17T17:45:49.465Z,102192.16
2023-02-17T17:48:18.070Z,102197.91
2023-02-17T17:50:45.956Z,102199.56
2023-02-17T17:53:13.307Z,102195.06
2023-02-17T17:55:40.801Z,102213.84
2023-02-17T17:58:08.188Z,102211.75
2023-02-17T18:00:35.577Z,102213.16
2023-02-17T18:03:05.708Z,102214.56
2023-02-17T18:05:33.058Z,102218.94
2023-02-17T18:08:01.021Z,102218.66
2023-02-17T18:10:28.375Z,102220.34
2023-02-17T18:12:55.839Z,102221.81
2023-02-17T18:15:23.173Z,102217.44
2023-02-17T18:17:53.609Z,102226.09
2023-02-17T18:20:21.188Z,102210.44
2023-02-17T18:22:48.557Z,102220.47
2023-02-17T18:25:16.087Z,102221.38
2023-02-17T18:27:46.246Z,102227.09
2023-02-17T18:30:17.864Z,102235.09
2023-02-17T18:32:45.533Z,102236.72
2023-02-17T18:35:14.014Z,102232.66
2023-02-17T18:37:45.314Z,102246.28
2023-02-17T18:40:15.035Z,102233.31
2023-02-17T18:42:45.460Z,102234.41
2023-02-17T18:45:13.986Z,102241.25
2023-02-17T18:47:42.662Z,102239.34
2023-02-17T18:50:11.353Z,102235.84
2023-02-17T18:52:39.946Z,102244.03
2023-02-17T18:55:08.504Z,102248.94
2023-02-17T18:57:36.777Z,102241.34
2023-02-17T19:00:05.968Z,102246.78
2023-02-17T19:02:36.707Z,102250.56
2023-02-17T19:05:05.552Z,102251.66
2023-02-17T19:07:33.962Z,102260.38
2023-02-17T19:10:01.640Z,102266.88
2023-02-17T19:12:28.917Z,102265.53
2023-02-17T19:15:17.270Z,102269.59
2023-02-17T19:17:45.629Z,102266.38
2023-02-17T19:20:13.364Z,102259.81
2023-02-17T19:22:40.653Z,102263.38
2023-02-17T19:25:08.435Z,102263.94
2023-02-17T19:27:38.845Z,102258.75
2023-02-17T19:30:10.371Z,102256.06
2023-02-17T19:32:38.263Z,102267.19
2023-02-17T19:35:05.975Z,102261.50
2023-02-17T19:37:36.180Z,102269.34
2023-02-17T19:40:04.138Z,102270.72
2023-02-17T19:42:31.575Z,102264.50
2023-02-17T19:44:58.949Z,102261.78
2023-02-17T19:47:26.307Z,102261.50
2023-02-17T19:49:53.679Z,102263.69
2023-02-17T19:52:21.131Z,102262.88
2023-02-17T19:54:50.473Z,102268.81
2023-02-17T19:57:18.460Z,102264.19
2023-02-17T19:59:45.996Z,102266.09
2023-02-17T20:02:16.521Z,102272.06
2023-02-17T20:04:44.663Z,102261.22
2023-02-17T20:07:12.049Z,102257.41
2023-02-17T20:09:39.442Z,102261.94
2023-02-17T20:12:07.181Z,102257.59
2023-02-17T20:14:34.605Z,102266.03
2023-02-17T20:17:02.014Z,102273.34
2023-02-17T20:19:29.415Z,102267.06
2023-02-17T20:21:56.904Z,102271.91
2023-02-17T20:24:24.333Z,102272.47
2023-02-17T20:26:53.576Z,102286.84
2023-02-17T20:29:21.524Z,102286.53
2023-02-17T20:31:49.184Z,102283.56
2023-02-17T20:34:43.295Z,102268.66
2023-02-17T20:37:11.221Z,102277.84
2023-02-17T20:39:40.142Z,102286.00
2023-02-17T20:42:07.721Z,102287.88
2023-02-17T20:44:35.489Z,102280.28
2023-02-17T20:47:03.175Z,102279.22
2023-02-17T20:49:30.493Z,102282.50
2023-02-17T20:51:58.316Z,102280.81
2023-02-17T20:54:26.178Z,102275.19
2023-02-17T20:56:53.861Z,102275.16
2023-02-17T20:59:21.286Z,102277.28
2023-02-17T21:01:48.698Z,102276.47
2023-02-17T21:04:17.294Z,102272.41
2023-02-17T21:06:46.957Z,102271.28
2023-02-17T21:09:17.333Z,102279.97
2023-02-17T21:11:45.562Z,102277.50
2023-02-17T21:14:13.301Z,102271.25
2023-02-17T21:16:40.809Z,102265.00
2023-02-17T21:19:08.429Z,102269.84
2023-02-17T21:21:35.934Z,102271.72
2023-02-17T21:24:04.210Z,102269.84
2023-02-17T21:26:34.239Z,102264.97
2023-02-17T21:29:01.764Z,102261.16
2023-02-17T21:31:29.343Z,102270.66
2023-02-17T21:33:59.075Z,102270.91
2023-02-17T21:36:29.056Z,102270.88
2023-02-17T21:38:57.578Z,102265.97
2023-02-17T21:41:27.630Z,102263.84
2023-02-17T21:44:13.927Z,102278.47
2023-02-17T21:46:43.006Z,102271.91
2023-02-17T21:49:10.772Z,102267.03
2023-02-17T21:51:39.937Z,102271.66
2023-02-17T21:54:07.930Z,102280.34
2023-02-17T21:56:36.366Z,102289.31
2023-02-17T21:59:04.808Z,102282.53
2023-02-17T22:01:33.896Z,102279.28
2023-02-17T22:04:02.514Z,102277.88
2023-02-17T22:06:34.064Z,102272.69
2023-02-17T22:09:02.533Z,102291.94
2023-02-17T22:11:32.662Z,102284.59
2023-02-17T22:14:02.374Z,102282.13
2023-02-17T22:16:32.319Z,102278.56
2023-02-17T22:19:00.073Z,102281.78
2023-02-17T22:21:27.918Z,102277.44
2023-02-17T22:23:56.669Z,102276.91
2023-02-17T22:26:25.705Z,102269.59
2023-02-17T22:28:53.973Z,102273.38
2023-02-17T22:31:23.821Z,102272.34
2023-02-17T22:33:51.487Z,102259.00
2023-02-17T22:36:22.571Z,102264.09
2023-02-17T22:38:51.099Z,102255.69
2023-02-17T22:41:21.819Z,102252.38
2023-02-17T22:43:49.727Z,102263.91
2023-02-17T22:46:19.406Z,102260.84
2023-02-17T22:48:48.726Z,102266.84
2023-02-17T22:51:21.886Z,102270.09
2023-02-17T22:53:49.585Z,102271.50
2023-02-17T22:56:17.011Z,102277.19
2023-02-17T22:58:44.464Z,102281.03
2023-02-17T23:01:13.183Z,102275.59
2023-02-17T23:03:41.420Z,102271.31
2023-02-17T23:06:19.629Z,102277.03
2023-02-17T23:08:48.894Z,102264.34
2023-02-17T23:11:18.827Z,102265.66
2023-02-17T23:13:46.385Z,102269.31
2023-02-17T23:16:18.916Z,102268.59
2023-02-17T23:18:46.248Z,102271.34
2023-02-17T23:21:13.795Z,102266.88
2023-02-17T23:23:41.186Z,102271.84
2023-02-17T23:26:08.790Z,102266.19
2023-02-17T23:28:36.333Z,102254.78
2023-02-17T23:31:03.788Z,102255.88
2023-02-17T23:33:31.996Z,102259.03
2023-02-17T23:35:59.407Z,102257.69
2023-02-17T23:38:26.740Z,102260.56
2023-02-17T23:40:54.077Z,102259.91
2023-02-17T23:43:21.715Z,102262.44
2023-02-17T23:45:49.734Z,102266.81
2023-02-17T23:48:17.179Z,102260.72
2023-02-17T23:50:46.548Z,102260.69
2023-02-17T23:53:15.399Z,102252.66
2023-02-17T23:55:42.728Z,102257.25
2023-02-17T23:58:10.056Z,102251.84
